Time,TemperatureF,DewpointF,PressureIn,WindDirection,WindDirectionDegrees,WindSpeedMPH,WindSpeedGustMPH,Humidity,HourlyPrecipIn,Conditions,Clouds,dailyrainin,SoftwareType,DateUTC
2013-05-20 00:00:00,38.0,-99.9,-100.00,NNE,22,6.0,10.0,-999,-99.99,,,0.00,,2013-05-20 07:00:00,
2013-05-20 00:52:00,38.0,-99.9,-100.00,North,-999,-999.0,-999.0,-999,-99.99,,,0.00,,2013-05-20 07:52:00,
2013-05-20 01:00:00,38.0,-99.9,-100.00,NNE,15,7.0,9.0,-999,-99.99,,,-99.99,,2013-05-20 08:00:00,
2013-05-20 02:00:00,37.0,-99.9,-100.00,NNE,26,5.0,9.0,-999,-99.99,,,0.00,,2013-05-20 09:00:00,
2013-05-20 03:00:00,36.0,-99.9,-100.00,NNE,21,5.0,7.0,-999,-99.99,,,0.00,,2013-05-20 10:00:00,
2013-05-20 04:00:00,35.0,-99.9,-100.00,NNE,16,5.0,7.0,-999,-99.99,,,0.00,,2013-05-20 11:00:00,
2013-05-20 05:00:00,35.0,-99.9,-100.00,NNE,14,6.0,7.0,-999,-99.99,,,0.00,,2013-05-20 12:00:00,
2013-05-20 06:00:00,35.0,-99.9,-100.00,NNE,18,5.0,7.0,-999,-99.99,,,0.00,,2013-05-20 13:00:00,
2013-05-20 06:52:00,35.0,-99.9,-100.00,NNE,18,5.0,7.0,-999,-99.99,,,0.00,,2013-05-20 13:52:00,
2013-05-20 07:00:00,37.0,-99.9,-100.00,NNE,15,7.0,11.0,-999,-99.99,,,-99.99,,2013-05-20 14:00:00,
2013-05-20 08:00:00,42.0,-99.9,-100.00,NNE,31,12.0,17.0,-999,-99.99,,,0.00,,2013-05-20 15:00:00,
2013-05-20 09:00:00,44.0,-99.9,-100.00,North,5,12.0,17.0,-999,-99.99,,,0.00,,2013-05-20 16:00:00,
2013-05-20 10:00:00,46.0,-99.9,-100.00,North,11,11.0,19.0,-999,-99.99,,,-99.99,,2013-05-20 17:00:00,
2013-05-20 11:00:00,49.0,-99.9,-100.00,North,8,9.0,17.0,-999,-99.99,,,0.00,,2013-05-20 18:00:00,
2013-05-20 12:00:00,53.0,-99.9,-100.00,ENE,68,5.0,11.0,-999,-99.99,,,-99.99,,2013-05-20 19:00:00,
2013-05-20 13:00:00,54.0,-99.9,-100.00,SE,133,4.0,9.0,-999,-99.99,,,-99.99,,2013-05-20 20:00:00,
2013-05-20 13:42:00,54.0,-99.9,-100.00,SE,133,4.0,9.0,-999,-99.99,,,-99.99,,2013-05-20 20:42:00,
2013-05-20 13:52:00,54.0,-99.9,-100.00,SE,133,4.0,9.0,-999,-99.99,,,-99.99,,2013-05-20 20:52:00,
2013-05-20 14:00:00,57.0,-99.9,-100.00,East,87,3.0,9.0,-999,-99.99,,,-99.99,,2013-05-20 21:00:00,
2013-05-20 14:43:00,57.0,-99.9,-100.00,East,87,3.0,9.0,-999,-99.99,,,-99.99,,2013-05-20 21:43:00,
2013-05-20 14:53:00,57.0,-99.9,-100.00,East,87,3.0,9.0,-999,-99.99,,,-99.99,,2013-05-20 21:53:00,
2013-05-20 15:00:00,56.0,-99.9,-100.00,WSW,242,3.0,10.0,-999,-99.99,,,-99.99,,2013-05-20 22:00:00,
2013-05-20 15:42:00,56.0,-99.9,-100.00,WSW,242,3.0,10.0,-999,-99.99,,,-99.99,,2013-05-20 22:42:00,
2013-05-20 15:53:00,56.0,-99.9,-100.00,WSW,242,3.0,10.0,-999,-99.99,,,-99.99,,2013-05-20 22:53:00,
2013-05-20 16:00:00,58.0,-99.9,-100.00,SW,222,5.0,11.0,-999,-99.99,,,-99.99,,2013-05-20 23:00:00,
2013-05-20 17:00:00,57.0,-99.9,-100.00,SSW,207,6.0,11.0,-999,-99.99,,,-99.99,,2013-05-21 00:00:00,
2013-05-20 18:00:00,56.0,-99.9,-100.00,SSW,211,6.0,13.0,-999,-99.99,,,-99.99,,2013-05-21 01:00:00,
2013-05-20 19:00:00,55.0,-99.9,-100.00,SW,229,7.0,12.0,-999,-99.99,,,-99.99,,2013-05-21 02:00:00,
2013-05-20 20:00:00,51.0,-99.9,-100.00,SSW,212,4.0,10.0,-999,-99.99,,,-99.99,,2013-05-21 03:00:00,
2013-05-20 21:00:00,46.0,-99.9,-100.00,ENE,72,1.0,6.0,-999,-99.99,,,0.00,,2013-05-21 04:00:00,
2013-05-20 21:53:00,46.0,-99.9,-100.00,ENE,72,1.0,6.0,-999,-99.99,,,0.00,,2013-05-21 04:53:00,
2013-05-20 22:00:00,44.0,-99.9,-100.00,East,99,3.0,7.0,-999,-99.99,,,0.00,,2013-05-21 05:00:00,
2013-05-20 22:52:00,44.0,-99.9,-100.00,East,99,3.0,7.0,-999,-99.99,,,0.00,,2013-05-21 05:52:00,
2013-05-20 23:00:00,42.0,-99.9,-100.00,ENE,77,2.0,6.0,-999,-99.99,,,0.00,,2013-05-21 06:00:00,
2013-05-20 23:52:00,42.0,-99.9,-100.00,ENE,77,2.0,6.0,-999,-99.99,,,0.00,,2013-05-21 06:52:00,